Time;durP1;ratioP1;P1;durP2;ratioP2;P2;SDS_P1;SDS_P2;PMS_P1;PMS_P2;Temp;Humidity;BMP_temperature;BMP_pressure;BME280_temperature;BME280_humidity;BME280_pressure;Samples;Min_cycle;Max_cycle;Signal;HPM_P1;HPM_P2
2023/06/13 00:00:16;;;;;;;6.10;3.35;;;;;;;-145.69;nan;51901.78;5074422;28;20890;-81
2023/06/13 00:02:48;;;;;;;6.15;3.70;;;;;;;-145.69;nan;51933.47;5074942;28;20770;-81
2023/06/13 00:05:21;;;;;;;6.90;3.73;;;;;;;-145.69;nan;51945.34;5074108;28;20447;-82
2023/06/13 00:07:49;;;;;;;6.05;3.72;;;;;;;-145.69;nan;51937.44;5074444;28;20408;-81
2023/06/13 00:10:16;;;;;;;7.20;3.67;;;;;;;-145.69;nan;51955.25;5073970;28;20463;-80
2023/06/13 00:12:49;;;;;;;8.30;3.50;;;;;;;-145.69;nan;51949.31;5074355;28;20408;-81
2023/06/13 00:15:18;;;;;;;7.75;3.67;;;;;;;-145.69;nan;51953.28;5073956;28;20416;-81
2023/06/13 00:17:45;;;;;;;7.82;3.70;;;;;;;-145.69;nan;51929.50;5074039;28;20412;-80
2023/06/13 00:20:12;;;;;;;6.47;3.58;;;;;;;-145.69;nan;51959.22;5073989;28;20790;-81
2023/06/13 00:22:39;;;;;;;7.90;3.60;;;;;;;-145.69;nan;51917.63;5074379;28;20486;-82
2023/06/13 00:25:06;;;;;;;5.53;3.55;;;;;;;-145.69;nan;51945.34;5074343;28;20416;-82
2023/06/13 00:27:34;;;;;;;5.25;3.33;;;;;;;-145.69;nan;51925.56;5073826;28;20411;-82
2023/06/13 00:30:02;;;;;;;6.00;3.78;;;;;;;-145.69;nan;51949.31;5073756;28;20431;-81
2023/06/13 00:32:29;;;;;;;6.53;3.70;;;;;;;-145.69;nan;51955.25;5074133;28;20894;-82
2023/06/13 00:34:56;;;;;;;6.80;3.55;;;;;;;-145.69;nan;51961.19;5072790;28;20422;-80
2023/06/13 00:37:22;;;;;;;7.70;3.60;;;;;;;-145.69;nan;51949.31;5072694;28;20423;-80
2023/06/13 00:39:49;;;;;;;6.93;3.72;;;;;;;-145.69;nan;51921.59;5072795;28;20422;-81
2023/06/13 00:42:15;;;;;;;4.90;3.40;;;;;;;-145.69;nan;51917.63;5071625;28;20413;-81
2023/06/13 00:44:42;;;;;;;6.95;3.65;;;;;;;-145.69;nan;51941.41;5053373;28;20516;-80
2023/06/13 00:47:13;;;;;;;6.15;3.50;;;;;;;-145.69;nan;51907.72;5055314;28;20405;-80
2023/06/13 00:49:41;;;;;;;7.47;3.50;;;;;;;-145.69;nan;51961.19;5073279;28;20469;-80
2023/06/13 00:52:08;;;;;;;6.33;3.57;;;;;;;-145.69;nan;51953.28;5073685;28;21053;-80
2023/06/13 00:54:36;;;;;;;5.78;3.45;;;;;;;-145.69;nan;51893.88;5073492;28;20950;-80
2023/06/13 00:57:06;;;;;;;5.53;3.70;;;;;;;-145.69;nan;51921.59;5073329;28;20458;-81
2023/06/13 00:59:35;;;;;;;9.38;3.50;;;;;;;-145.69;nan;51945.34;5073332;28;20446;-80
2023/06/13 01:02:03;;;;;;;5.78;3.70;;;;;;;-145.69;nan;51945.34;5073604;28;20411;-82
2023/06/13 01:04:34;;;;;;;6.70;3.72;;;;;;;-145.69;nan;51943.38;5069794;28;20493;-80
2023/06/13 01:07:01;;;;;;;5.70;3.70;;;;;;;-145.69;nan;51949.31;5061218;28;20428;-82
2023/06/13 01:09:27;;;;;;;7.13;3.70;;;;;;;-145.69;nan;51927.53;5061616;28;20507;-80
2023/06/13 01:12:05;;;;;;;6.15;3.72;;;;;;;-145.69;nan;51901.78;5072301;28;20886;-81
2023/06/13 01:14:40;;;;;;;5.43;3.17;;;;;;;-145.69;nan;51921.59;5072940;28;20952;-82
2023/06/13 01:17:14;;;;;;;8.32;4.10;;;;;;;-145.69;nan;51953.28;5072822;28;20414;-81
2023/06/13 01:19:44;;;;;;;6.50;3.53;;;;;;;-145.69;nan;51933.47;5072962;28;20423;-81
2023/06/13 01:22:16;;;;;;;8.05;3.80;;;;;;;-145.69;nan;51955.25;5073055;28;20408;-82
2023/06/13 01:24:53;;;;;;;7.68;3.67;;;;;;;-145.69;nan;51939.41;5073127;28;20418;-82
2023/06/13 01:27:22;;;;;;;6.65;3.60;;;;;;;-145.69;nan;51961.19;5073469;28;20412;-80
2023/06/13 01:29:51;;;;;;;9.02;3.60;;;;;;;-145.69;nan;51961.19;5072661;28;20971;-81
2023/06/13 01:32:21;;;;;;;6.55;3.80;;;;;;;-145.69;nan;51941.41;5072414;28;20462;-81
2023/06/13 01:34:49;;;;;;;8.27;4.10;;;;;;;-145.69;nan;51945.34;5065323;28;20515;-80
2023/06/13 01:37:16;;;;;;;6.80;3.70;;;;;;;-145.69;nan;51957.25;5072702;28;20914;-80
2023/06/13 01:39:42;;;;;;;5.45;3.70;;;;;;;-145.69;nan;51945.34;5072148;28;20427;-80
2023/06/13 01:42:09;;;;;;;6.85;4.03;;;;;;;-145.69;nan;51943.38;5072403;28;20933;-80
2023/06/13 01:44:38;;;;;;;8.67;3.63;;;;;;;-145.69;nan;51971.09;5072276;28;20819;-82
2023/06/13 01:47:13;;;;;;;7.22;3.80;;;;;;;-145.69;nan;51917.63;5072590;28;20420;-79
2023/06/13 01:49:49;;;;;;;5.72;3.83;;;;;;;-145.69;nan;51953.28;5072451;28;20407;-79
2023/06/13 01:52:21;;;;;;;7.17;3.50;;;;;;;-145.69;nan;51899.81;5071398;28;20416;-79
2023/06/13 01:54:53;;;;;;;7.45;3.65;;;;;;;-145.69;nan;51947.34;5071864;28;20427;-79
2023/06/13 01:57:25;;;;;;;7.30;3.40;;;;;;;-145.69;nan;51933.47;5072055;28;20431;-79
2023/06/13 01:59:55;;;;;;;5.70;3.60;;;;;;;-145.69;nan;51949.31;5072130;28;20411;-79
2023/06/13 02:02:23;;;;;;;7.32;3.60;;;;;;;-145.69;nan;51951.28;5071726;28;20420;-79
2023/06/13 02:04:50;;;;;;;7.05;3.58;;;;;;;-145.69;nan;51949.31;5071817;28;20451;-79
2023/06/13 02:07:17;;;;;;;7.55;3.50;;;;;;;-145.69;nan;51969.13;5071663;28;20778;-79
2023/06/13 02:09:43;;;;;;;6.75;3.30;;;;;;;-145.69;nan;51941.41;5071454;28;20942;-78
2023/06/13 02:12:11;;;;;;;6.55;3.78;;;;;;;-145.69;nan;51973.06;5071857;28;20412;-79
2023/06/13 02:14:39;;;;;;;7.22;3.45;;;;;;;-145.69;nan;51967.13;5072563;28;20422;-78
2023/06/13 02:17:11;;;;;;;8.57;3.85;;;;;;;-145.69;nan;51949.31;5071739;28;20416;-79
2023/06/13 02:19:38;;;;;;;4.78;3.25;;;;;;;-145.69;nan;51977.03;5071316;28;20423;-78
2023/06/13 02:22:05;;;;;;;6.25;3.50;;;;;;;-145.69;nan;51969.13;5071560;28;20431;-79
2023/06/13 02:24:31;;;;;;;7.55;3.42;;;;;;;-145.69;nan;51973.06;5071752;28;20454;-78
2023/06/13 02:26:59;;;;;;;7.10;3.10;;;;;;;-145.69;nan;51969.13;5071859;28;20407;-79
2023/06/13 02:29:25;;;;;;;8.15;3.72;;;;;;;-145.69;nan;51992.88;5071694;28;20503;-78
2023/06/13 02:31:54;;;;;;;6.28;3.50;;;;;;;-145.69;nan;51965.16;5071552;28;20407;-79
2023/06/13 02:34:22;;;;;;;7.15;3.53;;;;;;;-145.69;nan;51984.97;5071318;28;20408;-79
2023/06/13 02:36:48;;;;;;;7.03;3.40;;;;;;;-145.69;nan;51969.13;5071163;28;20429;-78
2023/06/13 02:39:15;;;;;;;8.60;3.55;;;;;;;-145.69;nan;51957.25;5071203;28;20938;-78
2023/06/13 02:41:41;;;;;;;6.65;3.47;;;;;;;-145.69;nan;51965.16;5070695;28;20973;-79
2023/06/13 02:44:07;;;;;;;6.30;3.53;;;;;;;-145.69;nan;51965.16;5071106;28;20416;-78
2023/06/13 02:46:34;;;;;;;6.68;3.47;;;;;;;-145.69;nan;51988.91;5071480;28;20418;-79
2023/06/13 02:49:01;;;;;;;7.78;3.45;;;;;;;-145.69;nan;51963.19;5067789;28;20412;-78
2023/06/13 02:51:28;;;;;;;5.95;3.55;;;;;;;-145.69;nan;52008.72;5070940;28;20418;-79
2023/06/13 02:53:55;;;;;;;6.65;3.10;;;;;;;-145.69;nan;51945.34;5071208;28;20469;-79
2023/06/13 02:56:21;;;;;;;6.32;3.30;;;;;;;-145.69;nan;51984.97;5071612;28;20408;-79
2023/06/13 02:58:48;;;;;;;7.50;3.60;;;;;;;-145.69;nan;51979.03;5071165;28;20415;-78
2023/06/13 03:01:14;;;;;;;6.00;3.47;;;;;;;-145.69;nan;51953.28;5071100;28;20435;-78
2023/06/13 03:03:42;;;;;;;8.43;3.40;;;;;;;-145.69;nan;51945.34;5073239;28;20413;-79
2023/06/13 03:06:11;;;;;;;7.28;3.50;;;;;;;-145.69;nan;51941.41;5075255;28;20423;-79
2023/06/13 03:08:39;;;;;;;7.13;3.63;;;;;;;-145.69;nan;51961.19;5075284;28;20411;-79
2023/06/13 03:11:06;;;;;;;11.10;3.72;;;;;;;-145.69;nan;51977.03;5074937;28;20511;-79
2023/06/13 03:13:32;;;;;;;7.72;3.40;;;;;;;-145.69;nan;51979.03;5074976;28;20473;-79
2023/06/13 03:16:01;;;;;;;7.57;3.33;;;;;;;-145.69;nan;51977.03;5074941;28;20404;-79
2023/06/13 03:18:27;;;;;;;7.35;3.60;;;;;;;-145.69;nan;51961.19;5074278;28;20469;-79
2023/06/13 03:20:54;;;;;;;7.90;3.60;;;;;;;-145.69;nan;52000.81;5075021;28;20431;-79
2023/06/13 03:23:20;;;;;;;10.77;3.90;;;;;;;-145.69;nan;52012.69;5075046;28;20767;-79
2023/06/13 03:25:48;;;;;;;4.97;3.20;;;;;;;-145.69;nan;51957.25;5074562;28;20445;-78
2023/06/13 03:28:14;;;;;;;7.68;3.28;;;;;;;-145.69;nan;51961.19;5074871;28;20415;-78
2023/06/13 03:30:41;;;;;;;6.65;3.30;;;;;;;-145.69;nan;51973.06;5074732;28;20411;-79
2023/06/13 03:33:07;;;;;;;8.23;3.63;;;;;;;-145.69;nan;51979.03;5074713;28;20412;-79
2023/06/13 03:35:35;;;;;;;5.72;3.15;;;;;;;-145.69;nan;51949.31;5074784;28;20408;-79
2023/06/13 03:38:01;;;;;;;7.43;3.80;;;;;;;-145.69;nan;51975.06;5074660;28;20408;-79
2023/06/13 03:40:28;;;;;;;6.20;3.50;;;;;;;-145.69;nan;52000.81;5074310;28;20438;-79
2023/06/13 03:42:56;;;;;;;7.68;3.50;;;;;;;-145.69;nan;51959.22;5074360;28;20411;-79
2023/06/13 03:45:25;;;;;;;7.30;3.70;;;;;;;-145.69;nan;51979.03;5074334;28;20415;-79
2023/06/13 03:47:51;;;;;;;5.37;3.13;;;;;;;-145.69;nan;51992.88;5073564;28;20925;-79
2023/06/13 03:50:18;;;;;;;6.15;3.30;;;;;;;-145.69;nan;51973.06;5074738;28;20411;-79
2023/06/13 03:52:44;;;;;;;6.60;3.20;;;;;;;-145.69;nan;51967.13;5073976;28;20408;-79
2023/06/13 03:55:11;;;;;;;7.15;3.40;;;;;;;-145.69;nan;51929.50;5074279;28;20418;-79
2023/06/13 03:57:38;;;;;;;6.53;3.47;;;;;;;-145.69;nan;51982.97;5074204;28;20412;-79
2023/06/13 04:00:09;;;;;;;7.20;3.30;;;;;;;-145.69;nan;51984.97;5073710;28;20929;-79
2023/06/13 04:02:36;;;;;;;8.75;3.40;;;;;;;-145.69;nan;51973.06;5074661;28;20427;-78
2023/06/13 04:05:03;;;;;;;6.68;3.40;;;;;;;-145.69;nan;51992.88;5074429;28;20411;-79
2023/06/13 04:07:33;;;;;;;6.95;3.35;;;;;;;-145.69;nan;51986.94;5074227;28;20879;-79
2023/06/13 04:09:59;;;;;;;5.68;3.45;;;;;;;-145.69;nan;51945.34;5074018;28;20416;-79
2023/06/13 04:12:26;;;;;;;7.18;3.42;;;;;;;-145.69;nan;51982.97;5073964;28;20416;-79
2023/06/13 04:14:52;;;;;;;7.30;3.45;;;;;;;-145.69;nan;51967.13;5072826;28;20412;-79
2023/06/13 04:17:20;;;;;;;9.77;3.70;;;;;;;-145.69;nan;52008.72;5074012;28;20408;-79
2023/06/13 04:19:48;;;;;;;5.85;3.55;;;;;;;-145.69;nan;51986.94;5073619;28;20459;-78
2023/06/13 04:22:16;;;;;;;6.28;3.55;;;;;;;-145.69;nan;51967.13;5074057;28;20450;-78
2023/06/13 04:24:43;;;;;;;6.57;3.30;;;;;;;-145.69;nan;52014.66;5074000;28;20510;-79
2023/06/13 04:27:13;;;;;;;7.33;3.30;;;;;;;-145.69;nan;51984.97;5073450;28;20430;-79
2023/06/13 04:29:40;;;;;;;8.07;3.43;;;;;;;-145.69;nan;51990.91;5073635;28;20418;-78
2023/06/13 04:32:13;;;;;;;5.45;3.13;;;;;;;-145.69;nan;52000.81;5073797;28;20424;-78
2023/06/13 04:34:44;;;;;;;8.85;3.70;;;;;;;-145.69;nan;51981.00;5073663;28;20416;-79
2023/06/13 04:37:11;;;;;;;7.07;3.50;;;;;;;-145.69;nan;51992.88;5073912;28;20506;-79
2023/06/13 04:39:37;;;;;;;5.03;3.00;;;;;;;-145.69;nan;52012.69;5073282;28;20465;-79
2023/06/13 04:42:05;;;;;;;7.57;3.50;;;;;;;-145.69;nan;51977.03;5073553;28;20431;-79
2023/06/13 04:44:33;;;;;;;7.95;3.20;;;;;;;-145.69;nan;51981.00;5073472;28;20477;-78
2023/06/13 04:47:01;;;;;;;4.30;3.03;;;;;;;-145.69;nan;51951.28;5073263;28;20421;-78
2023/06/13 04:49:27;;;;;;;7.20;3.20;;;;;;;-145.69;nan;51965.16;5073081;28;20415;-79
2023/06/13 04:51:55;;;;;;;8.80;3.77;;;;;;;-145.69;nan;51965.16;5072932;28;20403;-78
2023/06/13 04:54:23;;;;;;;4.57;3.13;;;;;;;-145.69;nan;51975.06;5072882;28;20415;-78
2023/06/13 04:56:50;;;;;;;7.55;3.40;;;;;;;-145.69;nan;51955.25;5072984;28;20416;-79
2023/06/13 04:59:16;;;;;;;6.60;3.30;;;;;;;-145.69;nan;51965.16;5065003;28;20815;-78
2023/06/13 05:01:43;;;;;;;6.55;3.00;;;;;;;-145.69;nan;51955.25;5052382;28;20445;-78
2023/06/13 05:04:09;;;;;;;8.23;3.33;;;;;;;-145.69;nan;51973.06;5061200;28;20420;-79
2023/06/13 05:06:37;;;;;;;5.55;2.90;;;;;;;-145.69;nan;51992.88;5072798;28;20933;-79
2023/06/13 05:09:06;;;;;;;5.43;2.70;;;;;;;-145.69;nan;51947.34;5073132;28;20416;-78
2023/06/13 05:11:32;;;;;;;5.60;2.93;;;;;;;-145.69;nan;51965.16;5072173;28;20411;-78
2023/06/13 05:13:59;;;;;;;5.57;2.90;;;;;;;-145.69;nan;51961.19;5072742;28;20412;-79
2023/06/13 05:16:26;;;;;;;5.15;3.00;;;;;;;-145.69;nan;51981.00;5072610;28;20411;-79
2023/06/13 05:18:57;;;;;;;8.40;3.20;;;;;;;-145.69;nan;51975.06;5072872;28;20507;-78
2023/06/13 05:21:24;;;;;;;6.32;2.80;;;;;;;-145.69;nan;51955.25;5072223;28;20955;-79
2023/06/13 05:23:51;;;;;;;5.35;3.00;;;;;;;-145.69;nan;51957.25;5072564;28;20411;-79
2023/06/13 05:26:19;;;;;;;5.22;2.80;;;;;;;-145.69;nan;51945.34;5071218;28;20435;-79
2023/06/13 05:28:45;;;;;;;10.25;2.90;;;;;;;-145.69;nan;51955.25;5072398;28;20416;-79
2023/06/13 05:31:13;;;;;;;5.45;2.78;;;;;;;-145.69;nan;51939.41;5072492;28;20416;-79
2023/06/13 05:33:40;;;;;;;4.70;2.90;;;;;;;-145.69;nan;51957.25;5072199;28;20412;-79
2023/06/13 05:36:06;;;;;;;4.77;2.97;;;;;;;-145.69;nan;51965.16;5084227;28;20470;-79
2023/06/13 05:38:33;;;;;;;7.18;2.95;;;;;;;-145.69;nan;51965.16;5092709;28;20406;-79
2023/06/13 05:40:59;;;;;;;6.03;2.60;;;;;;;-145.69;nan;51925.56;5092547;28;20425;-79
2023/06/13 05:43:27;;;;;;;5.28;2.50;;;;;;;-145.69;nan;51893.88;5092691;28;20750;-79
2023/06/13 05:45:53;;;;;;;8.07;2.63;;;;;;;-145.69;nan;51889.91;5092574;28;20406;-79
2023/06/13 05:48:20;;;;;;;5.38;2.40;;;;;;;-145.69;nan;51862.19;5092186;28;20418;-79
2023/06/13 05:50:46;;;;;;;7.10;2.75;;;;;;;-145.69;nan;51850.31;5092346;28;20414;-78
2023/06/13 05:53:13;;;;;;;6.03;2.60;;;;;;;-145.69;nan;51834.47;5092486;28;20414;-79
2023/06/13 05:55:40;;;;;;;4.77;2.60;;;;;;;-145.69;nan;51862.19;5089406;28;20881;-79
2023/06/13 05:58:06;;;;;;;6.45;2.53;;;;;;;-145.69;nan;51862.19;5072249;28;20423;-85
2023/06/13 06:00:34;;;;;;;4.82;2.33;;;;;;;-145.69;nan;51882.00;5072769;28;20424;-86
2023/06/13 06:03:01;;;;;;;5.72;2.55;;;;;;;-145.69;nan;51885.94;5072852;28;20462;-85
2023/06/13 06:05:29;;;;;;;8.52;2.17;;;;;;;-145.69;nan;51856.25;5072863;28;20902;-85
2023/06/13 06:07:55;;;;;;;5.15;2.58;;;;;;;-145.69;nan;51893.88;5073503;28;20422;-84
2023/06/13 06:10:22;;;;;;;7.43;2.20;;;;;;;-145.69;nan;51876.06;5072719;28;20411;-86
2023/06/13 06:12:49;;;;;;;5.10;2.80;;;;;;;-145.69;nan;51893.88;5072669;28;20477;-87
2023/06/13 06:15:15;;;;;;;5.35;2.50;;;;;;;-145.69;nan;51903.78;5072683;28;20424;-88
2023/06/13 06:17:43;;;;;;;3.90;2.50;;;;;;;-145.69;nan;51882.00;5072329;28;20451;-84
2023/06/13 06:20:10;;;;;;;7.18;2.58;;;;;;;-145.69;nan;51878.03;5072594;28;20411;-86
2023/06/13 06:22:37;;;;;;;6.53;2.50;;;;;;;-145.69;nan;51889.91;5072463;28;20431;-90
2023/06/13 06:25:03;;;;;;;4.82;2.30;;;;;;;-145.69;nan;51858.22;5072975;28;20419;-87
2023/06/13 06:27:30;;;;;;;4.10;2.30;;;;;;;-145.69;nan;51893.88;5072350;28;20423;-86
2023/06/13 06:29:57;;;;;;;6.40;2.50;;;;;;;-145.69;nan;51870.13;5073266;28;20419;-86
2023/06/13 06:32:23;;;;;;;6.47;2.63;;;;;;;-145.69;nan;51917.63;5072352;28;20430;-85
2023/06/13 06:34:51;;;;;;;6.95;2.10;;;;;;;-145.69;nan;51876.06;5072901;28;20407;-86
2023/06/13 06:37:18;;;;;;;6.07;2.50;;;;;;;-145.69;nan;51901.78;5072556;28;20451;-85
2023/06/13 06:39:44;;;;;;;7.30;2.40;;;;;;;-145.69;nan;51899.81;5077029;28;20411;-86
2023/06/13 06:42:11;;;;;;;6.00;2.50;;;;;;;-145.69;nan;51872.09;5076791;28;20436;-86
2023/06/13 06:44:38;;;;;;;7.72;2.70;;;;;;;-145.69;nan;51885.94;5077353;28;20418;-88
2023/06/13 06:47:06;;;;;;;5.65;2.53;;;;;;;-145.69;nan;51895.84;5080109;28;20481;-88
2023/06/13 06:49:32;;;;;;;5.55;2.40;;;;;;;-145.69;nan;51876.06;5081314;28;20488;-89
2023/06/13 06:52:00;;;;;;;4.43;2.40;;;;;;;-145.69;nan;51885.94;5078876;28;20480;-83
2023/06/13 06:54:27;;;;;;;4.57;2.40;;;;;;;-145.69;nan;51919.63;5077647;28;20801;-86
2023/06/13 06:56:54;;;;;;;4.05;2.20;;;;;;;-145.69;nan;51889.91;5077157;28;20502;-85
2023/06/13 06:59:20;;;;;;;8.83;2.67;;;;;;;-145.69;nan;51885.94;5079467;28;20430;-87
2023/06/13 07:01:48;;;;;;;8.20;2.78;;;;;;;-145.69;nan;51876.06;5076309;28;20469;-86
2023/06/13 07:04:14;;;;;;;3.90;2.20;;;;;;;-145.69;nan;51891.88;5079276;28;20518;-85
2023/06/13 07:06:41;;;;;;;6.88;2.58;;;;;;;-145.69;nan;51905.75;5077115;28;20420;-87
2023/06/13 07:09:10;;;;;;;6.43;2.40;;;;;;;-145.69;nan;51868.13;5077376;28;20430;-86
2023/06/13 07:11:36;;;;;;;4.70;2.60;;;;;;;-145.69;nan;51880.00;5076840;28;20933;-85
2023/06/13 07:14:03;;;;;;;4.85;2.35;;;;;;;-145.69;nan;51882.00;5076062;28;20411;-86
2023/06/13 07:16:29;;;;;;;6.18;2.50;;;;;;;-145.69;nan;51893.88;5060127;28;20450;-82
2023/06/13 07:18:56;;;;;;;5.75;2.25;;;;;;;-145.69;nan;51891.88;5077649;28;20422;-84
2023/06/13 07:21:22;;;;;;;4.47;2.30;;;;;;;-145.69;nan;51885.94;5076551;28;20415;-88
2023/06/13 07:23:49;;;;;;;5.43;2.53;;;;;;;-145.69;nan;51919.63;5077401;28;20438;-87
2023/06/13 07:26:17;;;;;;;5.70;2.57;;;;;;;-145.69;nan;51848.34;5076766;28;20461;-85
2023/06/13 07:28:43;;;;;;;3.75;2.30;;;;;;;-145.69;nan;51874.06;5076518;28;20968;-87
2023/06/13 07:31:11;;;;;;;6.10;2.50;;;;;;;-145.69;nan;51858.22;5076305;28;20418;-86
2023/06/13 07:33:37;;;;;;;3.55;2.20;;;;;;;-145.69;nan;51893.88;5078057;28;20427;-88
2023/06/13 07:36:04;;;;;;;7.88;2.53;;;;;;;-145.69;nan;51854.28;5078457;28;20473;-89
2023/06/13 07:38:31;;;;;;;6.43;2.63;;;;;;;-145.69;nan;51864.16;5077488;28;20412;-87
2023/06/13 07:40:57;;;;;;;6.68;2.40;;;;;;;-145.69;nan;51854.28;5076917;28;20415;-89
2023/06/13 07:43:25;;;;;;;6.88;2.55;;;;;;;-145.69;nan;51870.13;5075711;28;20435;-86
2023/06/13 07:45:52;;;;;;;7.22;2.22;;;;;;;-145.69;nan;51874.06;5076154;28;20496;-86
2023/06/13 07:48:18;;;;;;;5.05;2.40;;;;;;;-145.69;nan;51880.00;5075942;28;20457;-88
2023/06/13 07:50:45;;;;;;;3.58;2.35;;;;;;;-145.69;nan;51876.06;5076757;28;20763;-82
2023/06/13 07:53:12;;;;;;;4.90;2.40;;;;;;;-145.69;nan;51864.16;5075301;28;20450;-84
2023/06/13 07:55:40;;;;;;;6.07;2.42;;;;;;;-145.69;nan;51860.22;5075304;28;20420;-83
2023/06/13 07:58:06;;;;;;;5.68;2.45;;;;;;;-145.69;nan;51854.28;5076462;28;20463;-84
2023/06/13 08:00:34;;;;;;;5.70;2.27;;;;;;;-145.69;nan;51842.38;5075604;28;20422;-86
2023/06/13 08:03:01;;;;;;;10.18;3.00;;;;;;;-145.69;nan;51850.31;5075361;28;20436;-83
2023/06/13 08:05:27;;;;;;;6.55;2.58;;;;;;;-145.69;nan;51826.56;5075223;28;20419;-87
2023/06/13 08:07:55;;;;;;;6.53;2.47;;;;;;;-145.69;nan;51876.06;5075124;28;20906;-85
2023/06/13 08:10:22;;;;;;;6.57;2.37;;;;;;;-145.69;nan;51856.25;5076656;28;20514;-87
2023/06/13 08:12:48;;;;;;;4.55;2.70;;;;;;;-145.69;nan;51887.94;5075479;28;20411;-83
2023/06/13 08:15:15;;;;;;;5.75;2.28;;;;;;;-145.69;nan;51844.38;5075103;28;20412;-85
2023/06/13 08:17:43;;;;;;;6.97;2.50;;;;;;;-145.69;nan;51866.16;5075470;28;20816;-86
2023/06/13 08:20:10;;;;;;;9.85;2.70;;;;;;;-145.69;nan;51856.25;5075219;28;20424;-85
2023/06/13 08:22:37;;;;;;;5.00;2.53;;;;;;;-145.69;nan;51858.22;5075623;28;20439;-89
2023/06/13 08:25:05;;;;;;;5.30;2.53;;;;;;;-145.69;nan;51834.47;5076201;28;20415;-88
2023/06/13 08:27:32;;;;;;;4.30;2.38;;;;;;;-145.69;nan;51834.47;5074767;28;20470;-87
2023/06/13 08:29:59;;;;;;;4.40;2.80;;;;;;;-145.69;nan;51826.56;5075662;28;20419;-84
2023/06/13 08:32:28;;;;;;;5.90;2.33;;;;;;;-145.69;nan;51862.19;5075466;28;20465;-83
2023/06/13 08:34:56;;;;;;;6.43;2.80;;;;;;;-145.69;nan;51834.47;5075437;28;20415;-90
2023/06/13 08:37:22;;;;;;;9.70;2.80;;;;;;;-145.69;nan;51848.34;5076435;28;20439;-90
2023/06/13 08:39:49;;;;;;;6.22;2.50;;;;;;;-145.69;nan;51830.50;5072731;28;20411;-79
2023/06/13 08:42:16;;;;;;;5.70;2.70;;;;;;;-145.69;nan;51810.72;5073244;28;20517;-79
2023/06/13 08:44:42;;;;;;;7.55;2.47;;;;;;;-145.69;nan;51816.66;5073241;28;20455;-81
2023/06/13 08:47:10;;;;;;;4.43;2.40;;;;;;;-145.69;nan;51814.66;5073897;28;20419;-84
2023/06/13 08:49:37;;;;;;;8.25;2.97;;;;;;;-145.69;nan;51838.44;5074066;28;20419;-82
2023/06/13 08:52:11;;;;;;;3.75;2.50;;;;;;;-145.69;nan;51854.28;5073832;28;20426;-83
2023/06/13 08:54:39;;;;;;;6.32;2.85;;;;;;;-145.69;nan;51834.47;5073223;28;20481;-81
2023/06/13 08:57:06;;;;;;;7.88;2.78;;;;;;;-145.69;nan;51810.72;5072817;28;20810;-82
2023/06/13 08:59:37;;;;;;;6.40;2.55;;;;;;;-145.69;nan;51854.28;5073008;28;20832;-81
2023/06/13 09:02:05;;;;;;;4.47;2.60;;;;;;;-145.69;nan;51798.81;5072043;28;20793;-81
2023/06/13 09:04:37;;;;;;;7.82;2.60;;;;;;;-145.69;nan;51842.38;5074199;28;20422;-80
2023/06/13 09:07:07;;;;;;;5.57;2.40;;;;;;;-145.69;nan;51814.66;5073226;28;20426;-80
2023/06/13 09:09:35;;;;;;;7.25;2.67;;;;;;;-145.69;nan;51818.63;5061284;28;20420;-79
2023/06/13 09:12:03;;;;;;;4.72;2.53;;;;;;;-145.69;nan;51798.81;5065670;28;20420;-78
2023/06/13 09:14:30;;;;;;;9.07;2.43;;;;;;;-145.69;nan;51832.50;5072131;28;20443;-78
2023/06/13 09:16:56;;;;;;;4.25;2.40;;;;;;;-145.69;nan;51810.72;5072280;28;20419;-77
2023/06/13 09:19:23;;;;;;;3.95;2.42;;;;;;;-145.69;nan;51800.81;5072447;28;20438;-77
2023/06/13 09:21:50;;;;;;;4.55;2.40;;;;;;;-145.69;nan;51826.56;5072235;28;20920;-77
2023/06/13 09:24:18;;;;;;;4.82;2.33;;;;;;;-145.69;nan;51798.81;5072165;28;20910;-78
2023/06/13 09:26:45;;;;;;;6.10;2.55;;;;;;;-145.69;nan;51802.78;5071832;28;20419;-78
2023/06/13 09:29:11;;;;;;;7.07;2.60;;;;;;;-145.69;nan;51798.81;5071637;28;20416;-77
2023/06/13 09:31:39;;;;;;;6.55;2.50;;;;;;;-145.69;nan;51808.72;5072432;28;20825;-77
2023/06/13 09:34:06;;;;;;;4.25;2.47;;;;;;;-145.69;nan;51786.94;5072020;28;20469;-77
2023/06/13 09:36:34;;;;;;;3.90;2.30;;;;;;;-145.69;nan;51790.91;5072079;28;20476;-77
2023/06/13 09:39:04;;;;;;;4.45;2.63;;;;;;;-145.69;nan;51790.91;5071932;28;20411;-77
2023/06/13 09:41:32;;;;;;;5.25;2.60;;;;;;;-145.69;nan;51822.59;5071592;28;20852;-77
2023/06/13 09:44:02;;;;;;;5.70;2.58;;;;;;;-145.69;nan;51798.81;5071216;28;20493;-76
2023/06/13 09:46:29;;;;;;;8.15;2.53;;;;;;;-145.69;nan;51794.88;5071092;28;20503;-75
2023/06/13 09:48:56;;;;;;;4.13;2.40;;;;;;;-145.69;nan;51788.94;5070780;28;20456;-75
2023/06/13 09:51:22;;;;;;;7.90;2.65;;;;;;;-145.69;nan;51783.00;5071111;28;20421;-76
2023/06/13 09:53:50;;;;;;;4.22;2.58;;;;;;;-145.69;nan;51788.94;5070779;28;20511;-76
2023/06/13 09:56:16;;;;;;;4.47;2.60;;;;;;;-145.69;nan;51784.97;5070591;28;20814;-76
2023/06/13 09:58:44;;;;;;;4.53;2.55;;;;;;;-145.69;nan;51816.66;5071275;28;20414;-75
2023/06/13 10:01:15;;;;;;;7.25;2.50;;;;;;;-145.69;nan;51814.66;5071557;28;20424;-77
2023/06/13 10:03:43;;;;;;;7.25;2.40;;;;;;;-145.69;nan;51808.72;5071500;28;20791;-75
2023/06/13 10:06:10;;;;;;;6.63;2.60;;;;;;;-145.69;nan;51802.78;5071080;28;20791;-78
2023/06/13 10:08:37;;;;;;;5.87;2.40;;;;;;;-145.69;nan;51814.66;5071220;28;20407;-78
2023/06/13 10:11:11;;;;;;;7.75;2.60;;;;;;;-145.69;nan;51788.94;5071481;28;20433;-77
2023/06/13 10:13:45;;;;;;;5.22;2.40;;;;;;;-145.69;nan;51796.84;5072055;28;20457;-76
2023/06/13 10:16:14;;;;;;;4.55;2.60;;;;;;;-145.69;nan;51784.97;5071409;28;21049;-76
2023/06/13 10:18:43;;;;;;;4.47;2.40;;;;;;;-145.69;nan;51794.88;5071023;28;20420;-77
2023/06/13 10:21:13;;;;;;;5.20;2.43;;;;;;;-145.69;nan;51784.97;5071344;28;20412;-76
2023/06/13 10:23:44;;;;;;;6.07;2.50;;;;;;;-145.69;nan;51812.69;5071580;28;20516;-77
2023/06/13 10:26:15;;;;;;;5.43;2.63;;;;;;;-145.69;nan;51808.72;5071605;28;20783;-77
2023/06/13 10:28:58;;;;;;;6.80;2.92;;;;;;;-145.69;nan;51767.16;5051460;28;20900;-77
2023/06/13 10:31:35;;;;;;;5.07;2.55;;;;;;;-145.69;nan;51808.72;5060808;28;20472;-81
2023/06/13 10:34:21;;;;;;;7.43;2.42;;;;;;;-145.69;nan;51777.03;5071598;28;20450;-82
2023/06/13 10:37:14;;;;;;;6.97;2.57;;;;;;;-145.69;nan;51783.00;5071695;28;20621;-82
2023/06/13 10:39:57;;;;;;;5.65;2.50;;;;;;;-145.69;nan;51790.91;5071800;28;20424;-81
2023/06/13 10:42:29;;;;;;;4.82;2.45;;;;;;;-145.69;nan;51779.03;5071240;28;20426;-82
2023/06/13 10:45:01;;;;;;;4.13;2.53;;;;;;;-145.69;nan;51810.72;5070984;28;20915;-81
2023/06/13 10:47:30;;;;;;;9.47;2.80;;;;;;;-145.69;nan;51796.84;5069544;28;20424;-82
2023/06/13 10:49:59;;;;;;;7.82;2.70;;;;;;;-145.69;nan;51800.81;5070754;28;20419;-78
2023/06/13 10:52:25;;;;;;;6.97;2.70;;;;;;;-145.69;nan;51775.06;5071200;28;20459;-78
2023/06/13 10:54:53;;;;;;;6.43;2.65;;;;;;;-145.69;nan;51767.16;5071196;28;20870;-76
2023/06/13 10:57:20;;;;;;;7.72;2.60;;;;;;;-145.69;nan;51779.03;5071032;28;20494;-76
2023/06/13 10:59:48;;;;;;;5.95;2.72;;;;;;;-145.69;nan;51769.13;5071226;28;20415;-83
2023/06/13 11:02:16;;;;;;;4.72;2.42;;;;;;;-145.69;nan;51788.94;5071470;28;20403;-78
2023/06/13 11:04:51;;;;;;;4.97;2.53;;;;;;;-145.69;nan;51783.00;5070651;28;20443;-77
2023/06/13 11:07:30;;;;;;;5.72;2.70;;;;;;;-145.69;nan;51747.34;5071574;28;20403;-78
2023/06/13 11:10:04;;;;;;;4.53;2.55;;;;;;;-145.69;nan;51779.03;5070798;28;20486;-77
2023/06/13 11:12:31;;;;;;;6.87;2.57;;;;;;;-145.69;nan;51781.00;5071312;28;20403;-76
2023/06/13 11:15:00;;;;;;;5.80;2.40;;;;;;;-145.69;nan;51763.19;5069689;28;20473;-75
2023/06/13 11:17:27;;;;;;;4.97;2.42;;;;;;;-145.69;nan;51783.00;5068133;28;20407;-75
2023/06/13 11:19:56;;;;;;;5.00;2.60;;;;;;;-145.69;nan;51783.00;5068346;28;20537;-75
2023/06/13 11:22:23;;;;;;;4.72;2.50;;;;;;;-145.69;nan;51775.06;5054426;28;20524;-76
2023/06/13 11:24:51;;;;;;;4.88;2.80;;;;;;;-145.69;nan;51743.38;5053340;28;20425;-76
2023/06/13 11:27:17;;;;;;;7.43;2.55;;;;;;;-145.69;nan;51767.16;5065240;28;20813;-76
2023/06/13 11:29:44;;;;;;;3.65;2.38;;;;;;;-145.69;nan;51781.00;5074403;28;20506;-75
2023/06/13 11:32:12;;;;;;;8.60;2.72;;;;;;;-145.69;nan;51786.94;5074289;28;20891;-77
2023/06/13 11:34:42;;;;;;;5.63;2.80;;;;;;;-145.69;nan;51757.25;5074803;28;20415;-76
2023/06/13 11:37:17;;;;;;;4.90;2.53;;;;;;;-145.69;nan;51771.09;5074642;28;20473;-76